sensor_id;sensor_type;location;lat;lon;timestamp;P1;durP1;ratioP1;P2;durP2;ratioP2
73879;SDS011;62211;42.986;23.256;2022-09-09T00:04:08;14.90;;;11.75;;
73879;SDS011;62211;42.986;23.256;2022-09-09T00:06:43;15.85;;;12.85;;
73879;SDS011;62211;42.986;23.256;2022-09-09T00:09:18;15.27;;;12.15;;
73879;SDS011;62211;42.986;23.256;2022-09-09T00:14:16;13.23;;;11.82;;
73879;SDS011;62211;42.986;23.256;2022-09-09T00:16:43;18.13;;;13.13;;
73879;SDS011;62211;42.986;23.256;2022-09-09T00:24:38;15.60;;;12.32;;
73879;SDS011;62211;42.986;23.256;2022-09-09T00:27:09;13.27;;;11.65;;
73879;SDS011;62211;42.986;23.256;2022-09-09T00:29:59;13.82;;;11.68;;
73879;SDS011;62211;42.986;23.256;2022-09-09T00:32:37;15.25;;;12.75;;
73879;SDS011;62211;42.986;23.256;2022-09-09T00:35:03;14.63;;;12.43;;
73879;SDS011;62211;42.986;23.256;2022-09-09T00:37:41;13.00;;;11.65;;
73879;SDS011;62211;42.986;23.256;2022-09-09T00:40:18;14.57;;;13.02;;
73879;SDS011;62211;42.986;23.256;2022-09-09T00:42:48;17.15;;;12.88;;
73879;SDS011;62211;42.986;23.256;2022-09-09T00:47:55;15.15;;;11.68;;
73879;SDS011;62211;42.986;23.256;2022-09-09T00:53:24;14.40;;;12.27;;
73879;SDS011;62211;42.986;23.256;2022-09-09T00:56:14;15.70;;;11.25;;
73879;SDS011;62211;42.986;23.256;2022-09-09T00:58:43;13.32;;;11.82;;
73879;SDS011;62211;42.986;23.256;2022-09-09T01:01:16;13.38;;;11.88;;
73879;SDS011;62211;42.986;23.256;2022-09-09T01:03:55;16.02;;;11.27;;
73879;SDS011;62211;42.986;23.256;2022-09-09T01:06:37;12.73;;;11.20;;
73879;SDS011;62211;42.986;23.256;2022-09-09T01:12:01;13.93;;;11.98;;
73879;SDS011;62211;42.986;23.256;2022-09-09T01:17:02;14.60;;;11.23;;
73879;SDS011;62211;42.986;23.256;2022-09-09T01:25:07;12.93;;;11.32;;
73879;SDS011;62211;42.986;23.256;2022-09-09T01:27:56;16.08;;;12.57;;
73879;SDS011;62211;42.986;23.256;2022-09-09T01:30:24;15.48;;;12.95;;
73879;SDS011;62211;42.986;23.256;2022-09-09T01:32:52;16.77;;;13.93;;
73879;SDS011;62211;42.986;23.256;2022-09-09T01:35:25;18.88;;;13.52;;
73879;SDS011;62211;42.986;23.256;2022-09-09T01:38:15;15.70;;;13.90;;
73879;SDS011;62211;42.986;23.256;2022-09-09T01:40:42;14.65;;;12.80;;
73879;SDS011;62211;42.986;23.256;2022-09-09T01:43:07;16.55;;;13.82;;
73879;SDS011;62211;42.986;23.256;2022-09-09T01:45:33;15.27;;;12.88;;
73879;SDS011;62211;42.986;23.256;2022-09-09T01:47:59;17.90;;;13.68;;
73879;SDS011;62211;42.986;23.256;2022-09-09T01:50:24;21.98;;;14.05;;
73879;SDS011;62211;42.986;23.256;2022-09-09T01:52:51;21.45;;;13.73;;
73879;SDS011;62211;42.986;23.256;2022-09-09T01:55:26;15.32;;;13.43;;
73879;SDS011;62211;42.986;23.256;2022-09-09T01:57:59;14.63;;;13.00;;
73879;SDS011;62211;42.986;23.256;2022-09-09T02:00:37;14.80;;;12.65;;
73879;SDS011;62211;42.986;23.256;2022-09-09T02:08:47;15.00;;;13.32;;
73879;SDS011;62211;42.986;23.256;2022-09-09T02:11:15;14.35;;;12.90;;
73879;SDS011;62211;42.986;23.256;2022-09-09T02:13:46;15.50;;;12.63;;
73879;SDS011;62211;42.986;23.256;2022-09-09T02:21:28;15.85;;;14.20;;
73879;SDS011;62211;42.986;23.256;2022-09-09T02:23:54;14.38;;;12.90;;
73879;SDS011;62211;42.986;23.256;2022-09-09T02:26:21;17.52;;;13.88;;
73879;SDS011;62211;42.986;23.256;2022-09-09T02:32:09;14.80;;;13.18;;
73879;SDS011;62211;42.986;23.256;2022-09-09T02:34:43;19.33;;;14.48;;
73879;SDS011;62211;42.986;23.256;2022-09-09T02:37:11;18.85;;;12.77;;
73879;SDS011;62211;42.986;23.256;2022-09-09T02:39:38;16.23;;;13.20;;
73879;SDS011;62211;42.986;23.256;2022-09-09T02:42:04;16.13;;;14.23;;
73879;SDS011;62211;42.986;23.256;2022-09-09T02:44:30;17.58;;;14.50;;
73879;SDS011;62211;42.986;23.256;2022-09-09T02:49:44;14.68;;;13.00;;
73879;SDS011;62211;42.986;23.256;2022-09-09T02:52:26;14.95;;;13.32;;
73879;SDS011;62211;42.986;23.256;2022-09-09T02:54:59;19.73;;;15.05;;
73879;SDS011;62211;42.986;23.256;2022-09-09T02:57:31;15.63;;;13.27;;
73879;SDS011;62211;42.986;23.256;2022-09-09T02:59:58;14.68;;;13.07;;
73879;SDS011;62211;42.986;23.256;2022-09-09T03:02:25;16.92;;;13.43;;
73879;SDS011;62211;42.986;23.256;2022-09-09T03:04:50;20.25;;;14.13;;
73879;SDS011;62211;42.986;23.256;2022-09-09T03:07:20;16.52;;;12.80;;
73879;SDS011;62211;42.986;23.256;2022-09-09T03:09:45;16.38;;;13.60;;
73879;SDS011;62211;42.986;23.256;2022-09-09T03:12:11;15.02;;;13.43;;
73879;SDS011;62211;42.986;23.256;2022-09-09T03:14:36;20.70;;;14.27;;
73879;SDS011;62211;42.986;23.256;2022-09-09T03:17:03;15.55;;;13.63;;
73879;SDS011;62211;42.986;23.256;2022-09-09T03:19:29;14.60;;;13.10;;
73879;SDS011;62211;42.986;23.256;2022-09-09T03:21:55;15.90;;;11.80;;
73879;SDS011;62211;42.986;23.256;2022-09-09T03:24:20;16.65;;;12.15;;
73879;SDS011;62211;42.986;23.256;2022-09-09T03:26:47;13.93;;;12.18;;
73879;SDS011;62211;42.986;23.256;2022-09-09T03:29:13;15.48;;;12.95;;
73879;SDS011;62211;42.986;23.256;2022-09-09T03:31:39;16.65;;;13.10;;
73879;SDS011;62211;42.986;23.256;2022-09-09T03:34:05;14.80;;;13.27;;
73879;SDS011;62211;42.986;23.256;2022-09-09T03:36:30;21.15;;;14.10;;
73879;SDS011;62211;42.986;23.256;2022-09-09T03:38:56;16.08;;;14.25;;
73879;SDS011;62211;42.986;23.256;2022-09-09T03:41:22;17.45;;;13.27;;
73879;SDS011;62211;42.986;23.256;2022-09-09T03:43:49;16.50;;;13.23;;
73879;SDS011;62211;42.986;23.256;2022-09-09T03:46:15;16.90;;;14.30;;
73879;SDS011;62211;42.986;23.256;2022-09-09T03:48:41;23.75;;;16.67;;
73879;SDS011;62211;42.986;23.256;2022-09-09T03:51:06;26.13;;;17.30;;
73879;SDS011;62211;42.986;23.256;2022-09-09T03:53:31;24.30;;;14.40;;
73879;SDS011;62211;42.986;23.256;2022-09-09T03:55:58;19.80;;;14.40;;
73879;SDS011;62211;42.986;23.256;2022-09-09T03:58:25;19.77;;;14.75;;
73879;SDS011;62211;42.986;23.256;2022-09-09T04:00:59;23.23;;;15.90;;
73879;SDS011;62211;42.986;23.256;2022-09-09T04:03:26;17.90;;;14.32;;
73879;SDS011;62211;42.986;23.256;2022-09-09T04:05:52;22.95;;;15.13;;
73879;SDS011;62211;42.986;23.256;2022-09-09T04:08:18;21.35;;;14.60;;
73879;SDS011;62211;42.986;23.256;2022-09-09T04:10:45;16.45;;;14.07;;
73879;SDS011;62211;42.986;23.256;2022-09-09T04:13:12;17.63;;;14.63;;
73879;SDS011;62211;42.986;23.256;2022-09-09T04:15:39;18.75;;;14.60;;
73879;SDS011;62211;42.986;23.256;2022-09-09T04:18:04;23.63;;;14.57;;
73879;SDS011;62211;42.986;23.256;2022-09-09T04:20:30;32.63;;;15.90;;
73879;SDS011;62211;42.986;23.256;2022-09-09T04:22:55;21.95;;;14.77;;
73879;SDS011;62211;42.986;23.256;2022-09-09T04:25:21;20.48;;;14.75;;
73879;SDS011;62211;42.986;23.256;2022-09-09T04:27:46;21.90;;;14.52;;
73879;SDS011;62211;42.986;23.256;2022-09-09T04:30:12;21.10;;;13.93;;
73879;SDS011;62211;42.986;23.256;2022-09-09T04:32:37;20.65;;;13.88;;
73879;SDS011;62211;42.986;23.256;2022-09-09T04:35:03;20.95;;;13.52;;
73879;SDS011;62211;42.986;23.256;2022-09-09T04:37:29;23.77;;;13.40;;
73879;SDS011;62211;42.986;23.256;2022-09-09T04:39:54;20.00;;;15.10;;
73879;SDS011;62211;42.986;23.256;2022-09-09T04:42:19;20.45;;;14.32;;
73879;SDS011;62211;42.986;23.256;2022-09-09T04:44:45;29.73;;;15.35;;
73879;SDS011;62211;42.986;23.256;2022-09-09T04:47:10;20.42;;;15.25;;
73879;SDS011;62211;42.986;23.256;2022-09-09T04:49:36;34.25;;;17.13;;
73879;SDS011;62211;42.986;23.256;2022-09-09T04:52:02;28.65;;;17.63;;
73879;SDS011;62211;42.986;23.256;2022-09-09T04:54:28;32.65;;;16.42;;
73879;SDS011;62211;42.986;23.256;2022-09-09T04:56:53;24.75;;;16.25;;
73879;SDS011;62211;42.986;23.256;2022-09-09T04:59:19;27.00;;;16.75;;
73879;SDS011;62211;42.986;23.256;2022-09-09T05:01:45;24.13;;;17.33;;
73879;SDS011;62211;42.986;23.256;2022-09-09T05:04:11;33.65;;;16.92;;
73879;SDS011;62211;42.986;23.256;2022-09-09T05:06:36;29.33;;;17.63;;
73879;SDS011;62211;42.986;23.256;2022-09-09T05:09:02;32.10;;;16.67;;
73879;SDS011;62211;42.986;23.256;2022-09-09T05:11:29;20.77;;;16.13;;
73879;SDS011;62211;42.986;23.256;2022-09-09T05:13:55;27.90;;;15.32;;
73879;SDS011;62211;42.986;23.256;2022-09-09T05:16:21;23.67;;;15.60;;
73879;SDS011;62211;42.986;23.256;2022-09-09T05:18:48;18.65;;;15.88;;
73879;SDS011;62211;42.986;23.256;2022-09-09T05:21:15;19.77;;;15.05;;
73879;SDS011;62211;42.986;23.256;2022-09-09T05:23:41;19.92;;;16.55;;
73879;SDS011;62211;42.986;23.256;2022-09-09T05:26:09;20.33;;;16.10;;
73879;SDS011;62211;42.986;23.256;2022-09-09T05:28:37;21.30;;;15.57;;
73879;SDS011;62211;42.986;23.256;2022-09-09T05:31:04;19.50;;;16.02;;
73879;SDS011;62211;42.986;23.256;2022-09-09T05:33:33;23.02;;;16.70;;
73879;SDS011;62211;42.986;23.256;2022-09-09T05:36:01;22.35;;;15.73;;
73879;SDS011;62211;42.986;23.256;2022-09-09T05:38:28;27.30;;;17.83;;
73879;SDS011;62211;42.986;23.256;2022-09-09T05:40:54;21.92;;;15.50;;
73879;SDS011;62211;42.986;23.256;2022-09-09T05:43:21;20.20;;;15.82;;
73879;SDS011;62211;42.986;23.256;2022-09-09T05:46:08;19.67;;;14.55;;
73879;SDS011;62211;42.986;23.256;2022-09-09T05:48:36;15.23;;;13.48;;
73879;SDS011;62211;42.986;23.256;2022-09-09T05:51:03;19.70;;;14.77;;
73879;SDS011;62211;42.986;23.256;2022-09-09T05:53:30;16.80;;;13.70;;
73879;SDS011;62211;42.986;23.256;2022-09-09T05:58:29;18.95;;;14.20;;
73879;SDS011;62211;42.986;23.256;2022-09-09T06:01:00;18.55;;;14.15;;
73879;SDS011;62211;42.986;23.256;2022-09-09T06:03:36;18.05;;;13.15;;
73879;SDS011;62211;42.986;23.256;2022-09-09T06:06:03;16.85;;;14.07;;
73879;SDS011;62211;42.986;23.256;2022-09-09T06:08:31;20.85;;;13.70;;
73879;SDS011;62211;42.986;23.256;2022-09-09T06:11:08;16.13;;;12.80;;
73879;SDS011;62211;42.986;23.256;2022-09-09T06:13:38;18.45;;;13.30;;
73879;SDS011;62211;42.986;23.256;2022-09-09T06:16:14;15.38;;;11.68;;
73879;SDS011;62211;42.986;23.256;2022-09-09T06:18:42;26.92;;;13.93;;
73879;SDS011;62211;42.986;23.256;2022-09-09T06:21:15;15.27;;;11.75;;
73879;SDS011;62211;42.986;23.256;2022-09-09T06:23:42;17.52;;;11.98;;
73879;SDS011;62211;42.986;23.256;2022-09-09T06:26:16;13.93;;;11.77;;
73879;SDS011;62211;42.986;23.256;2022-09-09T06:28:48;17.67;;;12.88;;
73879;SDS011;62211;42.986;23.256;2022-09-09T06:31:15;17.30;;;12.60;;
73879;SDS011;62211;42.986;23.256;2022-09-09T06:33:52;15.80;;;12.48;;
73879;SDS011;62211;42.986;23.256;2022-09-09T06:36:20;19.80;;;13.15;;
73879;SDS011;62211;42.986;23.256;2022-09-09T06:38:47;14.10;;;12.32;;
73879;SDS011;62211;42.986;23.256;2022-09-09T06:41:13;15.00;;;12.02;;
73879;SDS011;62211;42.986;23.256;2022-09-09T06:43:40;12.93;;;10.60;;
73879;SDS011;62211;42.986;23.256;2022-09-09T06:46:06;16.50;;;10.95;;
73879;SDS011;62211;42.986;23.256;2022-09-09T06:48:42;13.77;;;10.85;;
73879;SDS011;62211;42.986;23.256;2022-09-09T06:51:16;12.23;;;11.05;;
73879;SDS011;62211;42.986;23.256;2022-09-09T06:53:46;11.02;;;9.95;;
73879;SDS011;62211;42.986;23.256;2022-09-09T06:56:20;11.73;;;9.77;;
73879;SDS011;62211;42.986;23.256;2022-09-09T06:58:50;10.88;;;9.73;;
73879;SDS011;62211;42.986;23.256;2022-09-09T07:01:25;15.68;;;9.68;;
73879;SDS011;62211;42.986;23.256;2022-09-09T07:03:53;10.60;;;9.43;;
73879;SDS011;62211;42.986;23.256;2022-09-09T07:06:23;10.43;;;9.43;;
73879;SDS011;62211;42.986;23.256;2022-09-09T07:08:53;11.38;;;9.60;;
73879;SDS011;62211;42.986;23.256;2022-09-09T07:11:23;20.10;;;10.80;;
73879;SDS011;62211;42.986;23.256;2022-09-09T07:13:52;10.63;;;8.63;;
73879;SDS011;62211;42.986;23.256;2022-09-09T07:16:18;9.82;;;8.95;;
73879;SDS011;62211;42.986;23.256;2022-09-09T07:18:45;10.18;;;9.18;;
73879;SDS011;62211;42.986;23.256;2022-09-09T07:21:11;9.93;;;8.73;;
73879;SDS011;62211;42.986;23.256;2022-09-09T07:23:38;9.90;;;9.00;;
73879;SDS011;62211;42.986;23.256;2022-09-09T07:26:11;12.73;;;8.65;;
73879;SDS011;62211;42.986;23.256;2022-09-09T07:28:38;7.90;;;7.20;;
73879;SDS011;62211;42.986;23.256;2022-09-09T07:31:04;8.45;;;7.28;;
73879;SDS011;62211;42.986;23.256;2022-09-09T07:33:31;8.13;;;7.20;;
73879;SDS011;62211;42.986;23.256;2022-09-09T07:36:05;16.67;;;7.78;;
73879;SDS011;62211;42.986;23.256;2022-09-09T07:38:42;9.63;;;6.65;;
73879;SDS011;62211;42.986;23.256;2022-09-09T07:41:16;15.82;;;7.72;;
73879;SDS011;62211;42.986;23.256;2022-09-09T07:43:45;8.68;;;7.18;;
73879;SDS011;62211;42.986;23.256;2022-09-09T07:46:11;7.40;;;6.70;;
73879;SDS011;62211;42.986;23.256;2022-09-09T07:48:38;11.32;;;7.28;;
73879;SDS011;62211;42.986;23.256;2022-09-09T07:51:10;9.13;;;7.15;;
73879;SDS011;62211;42.986;23.256;2022-09-09T07:53:39;9.10;;;7.30;;
73879;SDS011;62211;42.986;23.256;2022-09-09T07:56:06;6.88;;;6.25;;
73879;SDS011;62211;42.986;23.256;2022-09-09T07:58:34;13.95;;;7.60;;
73879;SDS011;62211;42.986;23.256;2022-09-09T08:01:10;8.07;;;6.90;;
73879;SDS011;62211;42.986;23.256;2022-09-09T08:03:39;6.65;;;5.95;;
73879;SDS011;62211;42.986;23.256;2022-09-09T08:06:05;8.05;;;6.15;;
73879;SDS011;62211;42.986;23.256;2022-09-09T08:08:33;6.25;;;5.65;;
73879;SDS011;62211;42.986;23.256;2022-09-09T08:11:05;8.30;;;6.90;;
73879;SDS011;62211;42.986;23.256;2022-09-09T08:13:37;11.55;;;6.28;;
73879;SDS011;62211;42.986;23.256;2022-09-09T08:16:15;7.68;;;5.80;;
73879;SDS011;62211;42.986;23.256;2022-09-09T08:18:41;10.20;;;6.32;;
73879;SDS011;62211;42.986;23.256;2022-09-09T08:21:11;10.73;;;6.47;;
73879;SDS011;62211;42.986;23.256;2022-09-09T08:23:41;8.00;;;6.47;;
73879;SDS011;62211;42.986;23.256;2022-09-09T08:26:11;7.22;;;6.53;;
73879;SDS011;62211;42.986;23.256;2022-09-09T08:28:37;6.95;;;5.93;;
73879;SDS011;62211;42.986;23.256;2022-09-09T08:31:06;6.85;;;6.22;;
73879;SDS011;62211;42.986;23.256;2022-09-09T08:33:33;8.23;;;6.18;;
73879;SDS011;62211;42.986;23.256;2022-09-09T08:35:59;12.13;;;6.70;;
73879;SDS011;62211;42.986;23.256;2022-09-09T08:38:24;9.10;;;6.53;;
73879;SDS011;62211;42.986;23.256;2022-09-09T08:40:49;8.98;;;7.88;;
73879;SDS011;62211;42.986;23.256;2022-09-09T08:43:18;8.52;;;6.03;;
73879;SDS011;62211;42.986;23.256;2022-09-09T08:46:01;10.10;;;6.13;;
73879;SDS011;62211;42.986;23.256;2022-09-09T08:51:13;7.72;;;6.35;;
73879;SDS011;62211;42.986;23.256;2022-09-09T08:53:43;16.13;;;8.43;;
73879;SDS011;62211;42.986;23.256;2022-09-09T08:56:16;7.18;;;6.47;;
73879;SDS011;62211;42.986;23.256;2022-09-09T09:12:01;8.82;;;6.90;;
73879;SDS011;62211;42.986;23.256;2022-09-09T09:14:32;9.50;;;7.55;;
73879;SDS011;62211;42.986;23.256;2022-09-09T09:17:00;11.15;;;8.32;;
73879;SDS011;62211;42.986;23.256;2022-09-09T09:19:30;10.32;;;7.20;;
73879;SDS011;62211;42.986;23.256;2022-09-09T09:29:59;8.80;;;7.90;;
73879;SDS011;62211;42.986;23.256;2022-09-09T09:32:26;12.13;;;8.07;;
73879;SDS011;62211;42.986;23.256;2022-09-09T09:34:57;12.07;;;8.70;;
73879;SDS011;62211;42.986;23.256;2022-09-09T09:37:26;14.32;;;7.88;;
73879;SDS011;62211;42.986;23.256;2022-09-09T09:39:54;11.55;;;9.13;;
73879;SDS011;62211;42.986;23.256;2022-09-09T09:42:20;16.75;;;9.73;;
73879;SDS011;62211;42.986;23.256;2022-09-09T09:44:45;10.90;;;8.10;;
73879;SDS011;62211;42.986;23.256;2022-09-09T09:47:15;10.90;;;8.63;;
73879;SDS011;62211;42.986;23.256;2022-09-09T09:49:54;11.15;;;9.23;;
73879;SDS011;62211;42.986;23.256;2022-09-09T09:52:21;8.68;;;7.78;;
73879;SDS011;62211;42.986;23.256;2022-09-09T09:54:49;10.85;;;8.60;;
73879;SDS011;62211;42.986;23.256;2022-09-09T09:57:15;12.65;;;9.50;;
73879;SDS011;62211;42.986;23.256;2022-09-09T09:59:41;10.35;;;9.32;;
73879;SDS011;62211;42.986;23.256;2022-09-09T10:02:14;10.32;;;9.13;;
73879;SDS011;62211;42.986;23.256;2022-09-09T10:04:59;10.55;;;9.02;;
73879;SDS011;62211;42.986;23.256;2022-09-09T10:07:46;12.43;;;9.27;;
73879;SDS011;62211;42.986;23.256;2022-09-09T10:10:21;10.68;;;9.50;;
73879;SDS011;62211;42.986;23.256;2022-09-09T10:19:35;15.68;;;10.18;;
73879;SDS011;62211;42.986;23.256;2022-09-09T10:42:55;14.32;;;10.32;;
73879;SDS011;62211;42.986;23.256;2022-09-09T10:48:30;17.25;;;10.57;;
73879;SDS011;62211;42.986;23.256;2022-09-09T10:56:17;18.63;;;9.90;;
73879;SDS011;62211;42.986;23.256;2022-09-09T11:01:46;14.88;;;9.57;;
73879;SDS011;62211;42.986;23.256;2022-09-09T11:06:51;12.20;;;10.32;;
73879;SDS011;62211;42.986;23.256;2022-09-09T11:09:24;9.55;;;8.45;;
73879;SDS011;62211;42.986;23.256;2022-09-09T11:11:55;10.98;;;9.63;;
73879;SDS011;62211;42.986;23.256;2022-09-09T11:16:56;12.63;;;9.48;;
73879;SDS011;62211;42.986;23.256;2022-09-09T11:19:36;12.80;;;9.88;;
73879;SDS011;62211;42.986;23.256;2022-09-09T11:27:30;13.68;;;9.05;;
73879;SDS011;62211;42.986;23.256;2022-09-09T11:33:08;11.52;;;9.82;;
73879;SDS011;62211;42.986;23.256;2022-09-09T11:38:33;11.93;;;10.25;;
73879;SDS011;62211;42.986;23.256;2022-09-09T11:41:12;10.98;;;8.73;;
73879;SDS011;62211;42.986;23.256;2022-09-09T11:43:40;10.18;;;8.77;;
73879;SDS011;62211;42.986;23.256;2022-09-09T11:46:16;13.98;;;9.93;;
73879;SDS011;62211;42.986;23.256;2022-09-09T11:48:45;14.90;;;9.95;;
73879;SDS011;62211;42.986;23.256;2022-09-09T11:51:26;10.90;;;8.60;;
73879;SDS011;62211;42.986;23.256;2022-09-09T11:56:34;10.90;;;8.85;;
73879;SDS011;62211;42.986;23.256;2022-09-09T12:01:58;11.70;;;10.00;;
73879;SDS011;62211;42.986;23.256;2022-09-09T12:04:48;13.95;;;9.65;;
73879;SDS011;62211;42.986;23.256;2022-09-09T12:07:27;10.65;;;9.48;;
73879;SDS011;62211;42.986;23.256;2022-09-09T12:10:19;10.77;;;8.93;;
73879;SDS011;62211;42.986;23.256;2022-09-09T12:12:51;9.68;;;8.70;;
73879;SDS011;62211;42.986;23.256;2022-09-09T12:17:49;9.13;;;8.23;;
73879;SDS011;62211;42.986;23.256;2022-09-09T12:20:23;12.23;;;9.23;;
73879;SDS011;62211;42.986;23.256;2022-09-09T12:28:44;12.38;;;8.75;;
73879;SDS011;62211;42.986;23.256;2022-09-09T12:34:16;10.15;;;8.60;;
73879;SDS011;62211;42.986;23.256;2022-09-09T12:36:55;12.27;;;8.95;;
73879;SDS011;62211;42.986;23.256;2022-09-09T12:39:28;11.30;;;8.93;;
73879;SDS011;62211;42.986;23.256;2022-09-09T12:41:56;12.00;;;8.90;;
73879;SDS011;62211;42.986;23.256;2022-09-09T12:44:24;12.95;;;9.48;;
73879;SDS011;62211;42.986;23.256;2022-09-09T12:46:50;12.57;;;8.70;;
73879;SDS011;62211;42.986;23.256;2022-09-09T12:49:28;12.38;;;8.48;;
73879;SDS011;62211;42.986;23.256;2022-09-09T12:52:00;13.23;;;10.18;;
73879;SDS011;62211;42.986;23.256;2022-09-09T12:54:27;10.25;;;9.25;;
73879;SDS011;62211;42.986;23.256;2022-09-09T12:56:53;12.30;;;9.32;;
73879;SDS011;62211;42.986;23.256;2022-09-09T12:59:23;13.77;;;9.00;;
73879;SDS011;62211;42.986;23.256;2022-09-09T13:01:56;10.02;;;8.02;;
73879;SDS011;62211;42.986;23.256;2022-09-09T13:04:22;9.88;;;8.38;;
73879;SDS011;62211;42.986;23.256;2022-09-09T13:06:48;12.13;;;9.23;;
73879;SDS011;62211;42.986;23.256;2022-09-09T13:09:14;11.75;;;9.05;;
73879;SDS011;62211;42.986;23.256;2022-09-09T13:11:58;11.60;;;9.88;;
73879;SDS011;62211;42.986;23.256;2022-09-09T13:14:31;11.95;;;9.27;;
73879;SDS011;62211;42.986;23.256;2022-09-09T13:17:00;11.85;;;8.93;;
73879;SDS011;62211;42.986;23.256;2022-09-09T13:19:29;14.05;;;8.55;;
73879;SDS011;62211;42.986;23.256;2022-09-09T13:21:57;24.75;;;10.10;;
73879;SDS011;62211;42.986;23.256;2022-09-09T13:24:41;12.02;;;8.65;;
73879;SDS011;62211;42.986;23.256;2022-09-09T13:29:53;15.63;;;8.70;;
73879;SDS011;62211;42.986;23.256;2022-09-09T13:32:23;12.32;;;9.23;;
73879;SDS011;62211;42.986;23.256;2022-09-09T13:34:59;24.00;;;9.57;;
73879;SDS011;62211;42.986;23.256;2022-09-09T13:40:06;10.40;;;9.00;;
73879;SDS011;62211;42.986;23.256;2022-09-09T13:42:42;15.32;;;9.50;;
73879;SDS011;62211;42.986;23.256;2022-09-09T13:45:16;14.25;;;9.38;;
73879;SDS011;62211;42.986;23.256;2022-09-09T13:47:45;14.55;;;9.73;;
73879;SDS011;62211;42.986;23.256;2022-09-09T13:52:44;11.45;;;10.15;;
73879;SDS011;62211;42.986;23.256;2022-09-09T13:55:10;9.82;;;8.80;;
73879;SDS011;62211;42.986;23.256;2022-09-09T13:57:36;11.98;;;9.30;;
73879;SDS011;62211;42.986;23.256;2022-09-09T14:00:01;10.65;;;9.57;;
73879;SDS011;62211;42.986;23.256;2022-09-09T14:02:27;15.02;;;9.57;;
73879;SDS011;62211;42.986;23.256;2022-09-09T14:04:52;10.75;;;9.35;;
73879;SDS011;62211;42.986;23.256;2022-09-09T14:07:20;14.35;;;9.32;;
73879;SDS011;62211;42.986;23.256;2022-09-09T14:09:46;14.93;;;8.25;;
73879;SDS011;62211;42.986;23.256;2022-09-09T14:12:15;21.08;;;10.02;;
73879;SDS011;62211;42.986;23.256;2022-09-09T14:14:41;10.35;;;9.30;;
73879;SDS011;62211;42.986;23.256;2022-09-09T14:17:09;12.75;;;8.63;;
73879;SDS011;62211;42.986;23.256;2022-09-09T14:19:35;10.93;;;8.38;;
73879;SDS011;62211;42.986;23.256;2022-09-09T14:22:02;8.60;;;7.72;;
73879;SDS011;62211;42.986;23.256;2022-09-09T14:24:27;13.32;;;8.68;;
73879;SDS011;62211;42.986;23.256;2022-09-09T14:26:53;8.63;;;7.43;;
73879;SDS011;62211;42.986;23.256;2022-09-09T14:29:18;8.40;;;7.50;;
73879;SDS011;62211;42.986;23.256;2022-09-09T14:31:44;11.65;;;8.00;;
73879;SDS011;62211;42.986;23.256;2022-09-09T14:34:09;15.70;;;8.07;;
73879;SDS011;62211;42.986;23.256;2022-09-09T14:36:36;9.20;;;6.43;;
73879;SDS011;62211;42.986;23.256;2022-09-09T14:39:02;7.07;;;6.38;;
73879;SDS011;62211;42.986;23.256;2022-09-09T14:41:29;9.98;;;7.45;;
73879;SDS011;62211;42.986;23.256;2022-09-09T14:43:55;15.52;;;8.27;;
73879;SDS011;62211;42.986;23.256;2022-09-09T14:46:21;5.50;;;5.00;;
73879;SDS011;62211;42.986;23.256;2022-09-09T14:48:46;8.68;;;5.10;;
73879;SDS011;62211;42.986;23.256;2022-09-09T14:51:17;7.10;;;5.35;;
73879;SDS011;62211;42.986;23.256;2022-09-09T14:53:53;11.00;;;5.20;;
73879;SDS011;62211;42.986;23.256;2022-09-09T14:56:21;5.88;;;4.72;;
73879;SDS011;62211;42.986;23.256;2022-09-09T14:58:48;9.38;;;4.30;;
73879;SDS011;62211;42.986;23.256;2022-09-09T15:01:14;7.38;;;5.80;;
73879;SDS011;62211;42.986;23.256;2022-09-09T15:03:41;6.82;;;5.07;;
73879;SDS011;62211;42.986;23.256;2022-09-09T15:06:11;5.30;;;4.60;;
73879;SDS011;62211;42.986;23.256;2022-09-09T15:08:39;6.88;;;5.45;;
73879;SDS011;62211;42.986;23.256;2022-09-09T15:11:05;5.68;;;4.75;;
73879;SDS011;62211;42.986;23.256;2022-09-09T15:13:35;9.77;;;4.68;;
73879;SDS011;62211;42.986;23.256;2022-09-09T15:18:30;7.20;;;5.25;;
73879;SDS011;62211;42.986;23.256;2022-09-09T15:20:57;6.63;;;4.47;;
73879;SDS011;62211;42.986;23.256;2022-09-09T15:23:23;12.85;;;5.10;;
73879;SDS011;62211;42.986;23.256;2022-09-09T15:25:55;7.10;;;4.63;;
73879;SDS011;62211;42.986;23.256;2022-09-09T15:28:21;5.13;;;4.30;;
73879;SDS011;62211;42.986;23.256;2022-09-09T15:30:47;9.40;;;4.53;;
73879;SDS011;62211;42.986;23.256;2022-09-09T15:33:14;9.25;;;5.55;;
73879;SDS011;62211;42.986;23.256;2022-09-09T15:35:39;9.45;;;5.28;;
73879;SDS011;62211;42.986;23.256;2022-09-09T15:38:04;9.73;;;4.78;;
73879;SDS011;62211;42.986;23.256;2022-09-09T15:40:30;7.35;;;4.25;;
73879;SDS011;62211;42.986;23.256;2022-09-09T15:42:57;8.18;;;4.97;;
73879;SDS011;62211;42.986;23.256;2022-09-09T15:45:23;9.85;;;5.20;;
73879;SDS011;62211;42.986;23.256;2022-09-09T15:47:48;9.70;;;4.65;;
73879;SDS011;62211;42.986;23.256;2022-09-09T15:50:14;11.90;;;4.68;;
73879;SDS011;62211;42.986;23.256;2022-09-09T15:52:39;10.95;;;5.43;;
73879;SDS011;62211;42.986;23.256;2022-09-09T15:55:05;6.88;;;5.22;;
73879;SDS011;62211;42.986;23.256;2022-09-09T15:57:31;7.70;;;4.93;;
73879;SDS011;62211;42.986;23.256;2022-09-09T15:59:56;10.15;;;5.47;;
73879;SDS011;62211;42.986;23.256;2022-09-09T16:02:22;24.23;;;7.05;;
73879;SDS011;62211;42.986;23.256;2022-09-09T16:04:47;8.45;;;5.93;;
73879;SDS011;62211;42.986;23.256;2022-09-09T16:07:13;11.38;;;5.10;;
73879;SDS011;62211;42.986;23.256;2022-09-09T16:09:38;10.70;;;5.38;;
73879;SDS011;62211;42.986;23.256;2022-09-09T16:12:04;10.60;;;6.10;;
73879;SDS011;62211;42.986;23.256;2022-09-09T16:14:34;12.02;;;5.38;;
73879;SDS011;62211;42.986;23.256;2022-09-09T16:17:01;10.18;;;5.60;;
73879;SDS011;62211;42.986;23.256;2022-09-09T16:19:27;9.02;;;5.68;;
73879;SDS011;62211;42.986;23.256;2022-09-09T16:21:53;11.35;;;6.10;;
73879;SDS011;62211;42.986;23.256;2022-09-09T16:24:18;15.98;;;6.05;;
73879;SDS011;62211;42.986;23.256;2022-09-09T16:26:49;10.45;;;5.72;;
73879;SDS011;62211;42.986;23.256;2022-09-09T16:29:16;11.02;;;5.85;;
73879;SDS011;62211;42.986;23.256;2022-09-09T16:31:42;13.27;;;6.15;;
73879;SDS011;62211;42.986;23.256;2022-09-09T16:34:08;9.95;;;5.90;;
73879;SDS011;62211;42.986;23.256;2022-09-09T16:36:35;7.43;;;6.15;;
73879;SDS011;62211;42.986;23.256;2022-09-09T16:39:05;11.20;;;6.47;;
73879;SDS011;62211;42.986;23.256;2022-09-09T16:41:33;12.30;;;7.60;;
73879;SDS011;62211;42.986;23.256;2022-09-09T16:44:00;15.63;;;7.60;;
73879;SDS011;62211;42.986;23.256;2022-09-09T16:46:27;11.50;;;6.10;;
73879;SDS011;62211;42.986;23.256;2022-09-09T16:48:53;16.08;;;7.38;;
73879;SDS011;62211;42.986;23.256;2022-09-09T16:51:32;17.48;;;9.20;;
73879;SDS011;62211;42.986;23.256;2022-09-09T16:54:02;14.70;;;8.88;;
73879;SDS011;62211;42.986;23.256;2022-09-09T16:56:30;17.33;;;8.52;;
73879;SDS011;62211;42.986;23.256;2022-09-09T16:58:59;27.52;;;8.35;;
73879;SDS011;62211;42.986;23.256;2022-09-09T17:01:27;19.60;;;7.80;;
73879;SDS011;62211;42.986;23.256;2022-09-09T17:03:57;67.80;;;38.72;;